sensor_id;sensor_type;location;lat;lon;timestamp;P1;durP1;ratioP1;P2;durP2;ratioP2
11771;SDS011;12556;55.748;13.194;2024-01-15T00:00:01;5.90;;;1.70;;
11771;SDS011;12556;55.748;13.194;2024-01-15T00:02:30;7.13;;;2.27;;
11771;SDS011;12556;55.748;13.194;2024-01-15T00:04:58;10.20;;;2.57;;
11771;SDS011;12556;55.748;13.194;2024-01-15T00:07:25;6.27;;;2.30;;
11771;SDS011;12556;55.748;13.194;2024-01-15T00:09:52;4.17;;;1.80;;
11771;SDS011;12556;55.748;13.194;2024-01-15T00:12:19;8.73;;;1.80;;
11771;SDS011;12556;55.748;13.194;2024-01-15T00:14:46;6.70;;;2.10;;
11771;SDS011;12556;55.748;13.194;2024-01-15T00:17:13;6.97;;;2.00;;
11771;SDS011;12556;55.748;13.194;2024-01-15T00:19:42;9.80;;;2.17;;
11771;SDS011;12556;55.748;13.194;2024-01-15T00:22:10;5.33;;;2.00;;
11771;SDS011;12556;55.748;13.194;2024-01-15T00:24:37;7.17;;;2.10;;
11771;SDS011;12556;55.748;13.194;2024-01-15T00:27:04;8.33;;;2.17;;
11771;SDS011;12556;55.748;13.194;2024-01-15T00:29:31;8.97;;;2.10;;
11771;SDS011;12556;55.748;13.194;2024-01-15T00:31:59;6.27;;;2.03;;
11771;SDS011;12556;55.748;13.194;2024-01-15T00:34:26;3.93;;;2.17;;
11771;SDS011;12556;55.748;13.194;2024-01-15T00:36:53;5.93;;;2.43;;
11771;SDS011;12556;55.748;13.194;2024-01-15T00:39:22;7.47;;;2.20;;
11771;SDS011;12556;55.748;13.194;2024-01-15T00:41:49;5.90;;;2.20;;
11771;SDS011;12556;55.748;13.194;2024-01-15T00:44:16;8.03;;;2.77;;
11771;SDS011;12556;55.748;13.194;2024-01-15T00:46:43;14.93;;;3.00;;
11771;SDS011;12556;55.748;13.194;2024-01-15T00:49:11;7.63;;;2.43;;
11771;SDS011;12556;55.748;13.194;2024-01-15T00:51:38;5.80;;;2.20;;
11771;SDS011;12556;55.748;13.194;2024-01-15T00:54:06;9.23;;;2.80;;
11771;SDS011;12556;55.748;13.194;2024-01-15T00:56:34;6.37;;;2.37;;
11771;SDS011;12556;55.748;13.194;2024-01-15T00:59:01;9.90;;;2.30;;
11771;SDS011;12556;55.748;13.194;2024-01-15T01:01:29;9.00;;;2.20;;
11771;SDS011;12556;55.748;13.194;2024-01-15T01:03:56;4.83;;;2.20;;
11771;SDS011;12556;55.748;13.194;2024-01-15T01:06:23;7.27;;;2.73;;
11771;SDS011;12556;55.748;13.194;2024-01-15T01:08:50;12.47;;;2.67;;
11771;SDS011;12556;55.748;13.194;2024-01-15T01:11:17;8.30;;;2.60;;
11771;SDS011;12556;55.748;13.194;2024-01-15T01:13:45;16.33;;;2.63;;
11771;SDS011;12556;55.748;13.194;2024-01-15T01:16:12;8.77;;;2.27;;
11771;SDS011;12556;55.748;13.194;2024-01-15T01:18:39;9.77;;;2.37;;
11771;SDS011;12556;55.748;13.194;2024-01-15T01:21:06;11.50;;;4.63;;
11771;SDS011;12556;55.748;13.194;2024-01-15T01:23:34;8.53;;;2.63;;
11771;SDS011;12556;55.748;13.194;2024-01-15T01:26:01;7.27;;;2.97;;
11771;SDS011;12556;55.748;13.194;2024-01-15T01:28:28;7.27;;;2.57;;
11771;SDS011;12556;55.748;13.194;2024-01-15T01:30:56;9.40;;;2.70;;
11771;SDS011;12556;55.748;13.194;2024-01-15T01:33:23;9.53;;;3.23;;
11771;SDS011;12556;55.748;13.194;2024-01-15T01:35:50;9.27;;;2.70;;
11771;SDS011;12556;55.748;13.194;2024-01-15T01:38:18;6.40;;;2.20;;
11771;SDS011;12556;55.748;13.194;2024-01-15T01:40:45;5.80;;;2.23;;
11771;SDS011;12556;55.748;13.194;2024-01-15T01:43:12;8.07;;;2.43;;
11771;SDS011;12556;55.748;13.194;2024-01-15T01:45:39;6.60;;;2.73;;
11771;SDS011;12556;55.748;13.194;2024-01-15T01:48:07;7.43;;;2.10;;
11771;SDS011;12556;55.748;13.194;2024-01-15T01:50:35;4.87;;;2.00;;
11771;SDS011;12556;55.748;13.194;2024-01-15T01:53:03;10.27;;;2.63;;
11771;SDS011;12556;55.748;13.194;2024-01-15T01:55:30;7.27;;;2.30;;
11771;SDS011;12556;55.748;13.194;2024-01-15T01:57:59;9.40;;;2.30;;
11771;SDS011;12556;55.748;13.194;2024-01-15T02:00:28;6.43;;;2.33;;
11771;SDS011;12556;55.748;13.194;2024-01-15T02:02:56;7.80;;;2.20;;
11771;SDS011;12556;55.748;13.194;2024-01-15T02:05:24;12.10;;;2.50;;
11771;SDS011;12556;55.748;13.194;2024-01-15T02:07:53;5.07;;;2.80;;
11771;SDS011;12556;55.748;13.194;2024-01-15T02:10:20;7.93;;;2.23;;
11771;SDS011;12556;55.748;13.194;2024-01-15T02:12:47;11.53;;;2.27;;
11771;SDS011;12556;55.748;13.194;2024-01-15T02:15:14;9.47;;;2.00;;
11771;SDS011;12556;55.748;13.194;2024-01-15T02:17:56;10.67;;;2.47;;
11771;SDS011;12556;55.748;13.194;2024-01-15T02:20:25;6.67;;;2.10;;
11771;SDS011;12556;55.748;13.194;2024-01-15T02:22:52;6.77;;;2.17;;
11771;SDS011;12556;55.748;13.194;2024-01-15T02:25:20;8.40;;;2.07;;
11771;SDS011;12556;55.748;13.194;2024-01-15T02:27:47;5.40;;;2.00;;
11771;SDS011;12556;55.748;13.194;2024-01-15T02:30:14;3.43;;;1.80;;
11771;SDS011;12556;55.748;13.194;2024-01-15T02:32:43;5.53;;;1.90;;
11771;SDS011;12556;55.748;13.194;2024-01-15T02:35:10;9.60;;;3.13;;
11771;SDS011;12556;55.748;13.194;2024-01-15T02:37:37;13.23;;;2.70;;
11771;SDS011;12556;55.748;13.194;2024-01-15T02:40:04;9.50;;;2.40;;
11771;SDS011;12556;55.748;13.194;2024-01-15T02:42:34;8.40;;;2.77;;
11771;SDS011;12556;55.748;13.194;2024-01-15T02:45:01;5.90;;;2.03;;
11771;SDS011;12556;55.748;13.194;2024-01-15T02:47:29;6.17;;;2.57;;
11771;SDS011;12556;55.748;13.194;2024-01-15T02:49:56;8.43;;;2.23;;
11771;SDS011;12556;55.748;13.194;2024-01-15T02:52:23;7.13;;;2.00;;
11771;SDS011;12556;55.748;13.194;2024-01-15T02:54:50;4.00;;;1.70;;
11771;SDS011;12556;55.748;13.194;2024-01-15T02:57:17;9.27;;;2.03;;
11771;SDS011;12556;55.748;13.194;2024-01-15T02:59:45;8.73;;;2.20;;
11771;SDS011;12556;55.748;13.194;2024-01-15T03:02:12;7.83;;;2.50;;
11771;SDS011;12556;55.748;13.194;2024-01-15T03:04:42;7.00;;;2.07;;
11771;SDS011;12556;55.748;13.194;2024-01-15T03:07:09;5.33;;;2.10;;
11771;SDS011;12556;55.748;13.194;2024-01-15T03:09:36;5.70;;;2.30;;
11771;SDS011;12556;55.748;13.194;2024-01-15T03:12:04;8.77;;;2.07;;
11771;SDS011;12556;55.748;13.194;2024-01-15T03:14:31;6.57;;;1.80;;
11771;SDS011;12556;55.748;13.194;2024-01-15T03:16:59;9.60;;;2.17;;
11771;SDS011;12556;55.748;13.194;2024-01-15T03:19:27;4.63;;;1.80;;
11771;SDS011;12556;55.748;13.194;2024-01-15T03:21:55;4.93;;;1.70;;
11771;SDS011;12556;55.748;13.194;2024-01-15T03:24:22;5.53;;;2.03;;
11771;SDS011;12556;55.748;13.194;2024-01-15T03:26:49;4.63;;;1.60;;
11771;SDS011;12556;55.748;13.194;2024-01-15T03:29:16;3.77;;;1.90;;
11771;SDS011;12556;55.748;13.194;2024-01-15T03:31:43;6.67;;;1.80;;
11771;SDS011;12556;55.748;13.194;2024-01-15T03:34:12;5.27;;;1.60;;
11771;SDS011;12556;55.748;13.194;2024-01-15T03:36:39;5.03;;;1.73;;
11771;SDS011;12556;55.748;13.194;2024-01-15T03:39:06;3.30;;;1.50;;
11771;SDS011;12556;55.748;13.194;2024-01-15T03:41:34;4.73;;;1.47;;
11771;SDS011;12556;55.748;13.194;2024-01-15T03:44:00;2.23;;;1.43;;
11771;SDS011;12556;55.748;13.194;2024-01-15T03:46:28;2.70;;;1.40;;
11771;SDS011;12556;55.748;13.194;2024-01-15T03:48:55;1.33;;;1.03;;
11771;SDS011;12556;55.748;13.194;2024-01-15T03:51:23;2.13;;;1.07;;
11771;SDS011;12556;55.748;13.194;2024-01-15T03:53:51;1.83;;;1.10;;
11771;SDS011;12556;55.748;13.194;2024-01-15T03:56:18;2.87;;;1.20;;
11771;SDS011;12556;55.748;13.194;2024-01-15T03:58:45;1.90;;;1.00;;
11771;SDS011;12556;55.748;13.194;2024-01-15T04:01:12;0.70;;;0.70;;
11771;SDS011;12556;55.748;13.194;2024-01-15T04:03:39;2.00;;;1.00;;
11771;SDS011;12556;55.748;13.194;2024-01-15T04:06:06;3.23;;;1.00;;
11771;SDS011;12556;55.748;13.194;2024-01-15T04:08:35;2.63;;;1.20;;
11771;SDS011;12556;55.748;13.194;2024-01-15T04:11:02;1.33;;;1.00;;
11771;SDS011;12556;55.748;13.194;2024-01-15T04:13:31;2.80;;;0.90;;
11771;SDS011;12556;55.748;13.194;2024-01-15T04:15:59;1.43;;;1.00;;
11771;SDS011;12556;55.748;13.194;2024-01-15T04:18:27;2.10;;;1.00;;
11771;SDS011;12556;55.748;13.194;2024-01-15T04:20:54;1.00;;;0.83;;
11771;SDS011;12556;55.748;13.194;2024-01-15T04:23:21;1.50;;;0.90;;
11771;SDS011;12556;55.748;13.194;2024-01-15T04:25:49;2.00;;;1.20;;
11771;SDS011;12556;55.748;13.194;2024-01-15T04:28:17;3.10;;;0.83;;
11771;SDS011;12556;55.748;13.194;2024-01-15T04:30:44;2.77;;;1.10;;
11771;SDS011;12556;55.748;13.194;2024-01-15T04:33:11;3.03;;;1.13;;
11771;SDS011;12556;55.748;13.194;2024-01-15T04:35:38;2.97;;;1.10;;
11771;SDS011;12556;55.748;13.194;2024-01-15T04:38:05;1.33;;;1.23;;
11771;SDS011;12556;55.748;13.194;2024-01-15T04:40:32;3.73;;;0.90;;
11771;SDS011;12556;55.748;13.194;2024-01-15T04:43:00;1.27;;;1.10;;
11771;SDS011;12556;55.748;13.194;2024-01-15T04:45:27;1.37;;;1.10;;
11771;SDS011;12556;55.748;13.194;2024-01-15T04:47:55;2.40;;;1.10;;
11771;SDS011;12556;55.748;13.194;2024-01-15T04:50:23;0.93;;;0.70;;
11771;SDS011;12556;55.748;13.194;2024-01-15T04:52:50;3.37;;;1.20;;
11771;SDS011;12556;55.748;13.194;2024-01-15T04:55:17;5.77;;;1.30;;
11771;SDS011;12556;55.748;13.194;2024-01-15T04:57:44;2.20;;;1.20;;
11771;SDS011;12556;55.748;13.194;2024-01-15T05:00:13;4.77;;;1.27;;
11771;SDS011;12556;55.748;13.194;2024-01-15T05:02:40;2.87;;;1.20;;
11771;SDS011;12556;55.748;13.194;2024-01-15T05:05:07;4.60;;;1.30;;
11771;SDS011;12556;55.748;13.194;2024-01-15T05:07:34;2.37;;;1.40;;
11771;SDS011;12556;55.748;13.194;2024-01-15T05:10:01;5.17;;;1.30;;
11771;SDS011;12556;55.748;13.194;2024-01-15T05:12:28;4.77;;;1.20;;
11771;SDS011;12556;55.748;13.194;2024-01-15T05:14:55;1.90;;;1.20;;
11771;SDS011;12556;55.748;13.194;2024-01-15T05:17:23;3.27;;;1.60;;
11771;SDS011;12556;55.748;13.194;2024-01-15T05:19:50;3.50;;;1.33;;
11771;SDS011;12556;55.748;13.194;2024-01-15T05:22:17;5.17;;;1.20;;
11771;SDS011;12556;55.748;13.194;2024-01-15T05:24:46;4.73;;;1.50;;
11771;SDS011;12556;55.748;13.194;2024-01-15T05:27:13;4.67;;;1.33;;
11771;SDS011;12556;55.748;13.194;2024-01-15T05:29:39;2.97;;;1.40;;
11771;SDS011;12556;55.748;13.194;2024-01-15T05:32:06;3.37;;;1.07;;
11771;SDS011;12556;55.748;13.194;2024-01-15T05:34:35;1.07;;;0.97;;
11771;SDS011;12556;55.748;13.194;2024-01-15T05:37:01;2.40;;;1.20;;
11771;SDS011;12556;55.748;13.194;2024-01-15T05:39:29;2.67;;;1.47;;
11771;SDS011;12556;55.748;13.194;2024-01-15T05:41:56;1.73;;;1.50;;
11771;SDS011;12556;55.748;13.194;2024-01-15T05:44:24;1.47;;;1.30;;
11771;SDS011;12556;55.748;13.194;2024-01-15T05:46:51;3.63;;;1.20;;
11771;SDS011;12556;55.748;13.194;2024-01-15T05:49:18;2.00;;;1.20;;
11771;SDS011;12556;55.748;13.194;2024-01-15T05:51:46;1.73;;;1.63;;
11771;SDS011;12556;55.748;13.194;2024-01-15T05:54:12;2.27;;;1.17;;
11771;SDS011;12556;55.748;13.194;2024-01-15T05:56:39;1.53;;;1.10;;
11771;SDS011;12556;55.748;13.194;2024-01-15T05:59:06;1.37;;;1.20;;
11771;SDS011;12556;55.748;13.194;2024-01-15T06:01:33;1.27;;;1.13;;
11771;SDS011;12556;55.748;13.194;2024-01-15T06:04:00;1.70;;;1.00;;
11771;SDS011;12556;55.748;13.194;2024-01-15T06:06:27;0.80;;;0.80;;
11771;SDS011;12556;55.748;13.194;2024-01-15T06:08:55;0.60;;;0.60;;
11771;SDS011;12556;55.748;13.194;2024-01-15T06:11:29;2.10;;;0.80;;
11771;SDS011;12556;55.748;13.194;2024-01-15T06:13:56;0.97;;;0.90;;
11771;SDS011;12556;55.748;13.194;2024-01-15T06:16:23;1.00;;;0.73;;
11771;SDS011;12556;55.748;13.194;2024-01-15T06:18:50;3.37;;;0.83;;
11771;SDS011;12556;55.748;13.194;2024-01-15T06:21:17;1.30;;;1.20;;
11771;SDS011;12556;55.748;13.194;2024-01-15T06:23:44;2.90;;;1.10;;
11771;SDS011;12556;55.748;13.194;2024-01-15T06:26:12;2.17;;;0.90;;
11771;SDS011;12556;55.748;13.194;2024-01-15T06:28:39;1.67;;;0.80;;
11771;SDS011;12556;55.748;13.194;2024-01-15T06:31:06;1.90;;;1.00;;
11771;SDS011;12556;55.748;13.194;2024-01-15T06:33:33;0.90;;;0.90;;
11771;SDS011;12556;55.748;13.194;2024-01-15T06:36:00;2.33;;;1.07;;
11771;SDS011;12556;55.748;13.194;2024-01-15T06:38:26;1.27;;;1.00;;
11771;SDS011;12556;55.748;13.194;2024-01-15T06:40:53;1.43;;;0.80;;
11771;SDS011;12556;55.748;13.194;2024-01-15T06:43:21;2.27;;;0.90;;
11771;SDS011;12556;55.748;13.194;2024-01-15T06:45:48;1.57;;;1.00;;
11771;SDS011;12556;55.748;13.194;2024-01-15T06:48:15;1.40;;;1.10;;
11771;SDS011;12556;55.748;13.194;2024-01-15T06:50:42;1.50;;;0.93;;
11771;SDS011;12556;55.748;13.194;2024-01-15T06:53:09;2.27;;;1.30;;
11771;SDS011;12556;55.748;13.194;2024-01-15T06:55:37;2.57;;;1.10;;
11771;SDS011;12556;55.748;13.194;2024-01-15T06:58:03;4.57;;;1.40;;
11771;SDS011;12556;55.748;13.194;2024-01-15T07:00:32;4.53;;;1.60;;
11771;SDS011;12556;55.748;13.194;2024-01-15T07:02:59;3.07;;;1.20;;
11771;SDS011;12556;55.748;13.194;2024-01-15T07:05:26;2.30;;;1.20;;
11771;SDS011;12556;55.748;13.194;2024-01-15T07:07:55;3.63;;;1.30;;
11771;SDS011;12556;55.748;13.194;2024-01-15T07:10:22;2.13;;;0.93;;
11771;SDS011;12556;55.748;13.194;2024-01-15T07:12:49;4.47;;;2.27;;
11771;SDS011;12556;55.748;13.194;2024-01-15T07:15:15;2.43;;;1.70;;
11771;SDS011;12556;55.748;13.194;2024-01-15T07:17:44;2.27;;;1.47;;
11771;SDS011;12556;55.748;13.194;2024-01-15T07:20:11;1.30;;;1.00;;
11771;SDS011;12556;55.748;13.194;2024-01-15T07:22:38;3.27;;;1.20;;
11771;SDS011;12556;55.748;13.194;2024-01-15T07:25:05;0.80;;;0.80;;
11771;SDS011;12556;55.748;13.194;2024-01-15T07:27:32;1.33;;;1.17;;
11771;SDS011;12556;55.748;13.194;2024-01-15T07:29:59;1.70;;;1.00;;
11771;SDS011;12556;55.748;13.194;2024-01-15T07:32:26;1.97;;;1.07;;
11771;SDS011;12556;55.748;13.194;2024-01-15T07:34:54;1.10;;;1.00;;
11771;SDS011;12556;55.748;13.194;2024-01-15T07:37:21;1.20;;;0.90;;
11771;SDS011;12556;55.748;13.194;2024-01-15T07:39:48;2.73;;;1.30;;
11771;SDS011;12556;55.748;13.194;2024-01-15T07:42:15;1.13;;;1.03;;
11771;SDS011;12556;55.748;13.194;2024-01-15T07:44:42;2.30;;;1.63;;
11771;SDS011;12556;55.748;13.194;2024-01-15T07:47:10;8.27;;;1.90;;
11771;SDS011;12556;55.748;13.194;2024-01-15T07:49:37;2.60;;;1.30;;
11771;SDS011;12556;55.748;13.194;2024-01-15T07:52:05;2.83;;;1.10;;
11771;SDS011;12556;55.748;13.194;2024-01-15T07:54:32;2.33;;;1.40;;
11771;SDS011;12556;55.748;13.194;2024-01-15T07:57:00;2.63;;;1.13;;
11771;SDS011;12556;55.748;13.194;2024-01-15T07:59:28;5.50;;;1.67;;
11771;SDS011;12556;55.748;13.194;2024-01-15T08:01:55;4.50;;;1.53;;
11771;SDS011;12556;55.748;13.194;2024-01-15T08:04:22;4.20;;;1.40;;
11771;SDS011;12556;55.748;13.194;2024-01-15T08:06:48;3.90;;;1.50;;
11771;SDS011;12556;55.748;13.194;2024-01-15T08:09:17;3.03;;;1.67;;
11771;SDS011;12556;55.748;13.194;2024-01-15T08:11:44;2.30;;;1.20;;
11771;SDS011;12556;55.748;13.194;2024-01-15T08:14:11;3.10;;;1.83;;
11771;SDS011;12556;55.748;13.194;2024-01-15T08:16:38;5.73;;;1.47;;
11771;SDS011;12556;55.748;13.194;2024-01-15T08:19:05;4.10;;;1.57;;
11771;SDS011;12556;55.748;13.194;2024-01-15T08:21:32;6.20;;;1.33;;
11771;SDS011;12556;55.748;13.194;2024-01-15T08:24:00;3.27;;;1.63;;
11771;SDS011;12556;55.748;13.194;2024-01-15T08:26:29;3.87;;;1.50;;
11771;SDS011;12556;55.748;13.194;2024-01-15T08:28:57;2.93;;;1.77;;
11771;SDS011;12556;55.748;13.194;2024-01-15T08:31:24;3.43;;;1.20;;
11771;SDS011;12556;55.748;13.194;2024-01-15T08:33:51;3.60;;;1.50;;
11771;SDS011;12556;55.748;13.194;2024-01-15T08:36:18;3.87;;;1.40;;
11771;SDS011;12556;55.748;13.194;2024-01-15T08:38:45;4.50;;;1.43;;
11771;SDS011;12556;55.748;13.194;2024-01-15T08:41:13;4.80;;;1.10;;
11771;SDS011;12556;55.748;13.194;2024-01-15T08:43:41;1.90;;;1.47;;
11771;SDS011;12556;55.748;13.194;2024-01-15T08:46:08;5.87;;;1.50;;
11771;SDS011;12556;55.748;13.194;2024-01-15T08:48:35;1.47;;;1.27;;
11771;SDS011;12556;55.748;13.194;2024-01-15T08:51:02;2.47;;;1.43;;
11771;SDS011;12556;55.748;13.194;2024-01-15T08:53:29;1.63;;;1.33;;
11771;SDS011;12556;55.748;13.194;2024-01-15T08:55:56;6.80;;;1.50;;
11771;SDS011;12556;55.748;13.194;2024-01-15T08:58:23;4.63;;;1.60;;
11771;SDS011;12556;55.748;13.194;2024-01-15T09:00:51;3.43;;;1.60;;
11771;SDS011;12556;55.748;13.194;2024-01-15T09:03:18;3.17;;;1.53;;
11771;SDS011;12556;55.748;13.194;2024-01-15T09:05:45;3.87;;;1.97;;
11771;SDS011;12556;55.748;13.194;2024-01-15T09:08:13;2.63;;;1.43;;
11771;SDS011;12556;55.748;13.194;2024-01-15T09:10:40;2.63;;;1.60;;
11771;SDS011;12556;55.748;13.194;2024-01-15T09:13:07;2.43;;;1.60;;
11771;SDS011;12556;55.748;13.194;2024-01-15T09:15:34;4.30;;;1.90;;
11771;SDS011;12556;55.748;13.194;2024-01-15T09:18:02;4.13;;;1.83;;
11771;SDS011;12556;55.748;13.194;2024-01-15T09:20:30;4.40;;;1.77;;
11771;SDS011;12556;55.748;13.194;2024-01-15T09:22:57;4.93;;;1.67;;
11771;SDS011;12556;55.748;13.194;2024-01-15T09:25:24;3.83;;;1.87;;
11771;SDS011;12556;55.748;13.194;2024-01-15T09:27:51;2.87;;;2.07;;
11771;SDS011;12556;55.748;13.194;2024-01-15T09:30:18;7.57;;;2.33;;
11771;SDS011;12556;55.748;13.194;2024-01-15T09:32:45;4.70;;;2.43;;
11771;SDS011;12556;55.748;13.194;2024-01-15T09:35:13;7.77;;;2.27;;
11771;SDS011;12556;55.748;13.194;2024-01-15T09:37:40;3.37;;;1.93;;
11771;SDS011;12556;55.748;13.194;2024-01-15T09:40:08;1.53;;;1.23;;
11771;SDS011;12556;55.748;13.194;2024-01-15T09:42:38;2.13;;;1.10;;
11771;SDS011;12556;55.748;13.194;2024-01-15T09:45:05;2.30;;;0.90;;
11771;SDS011;12556;55.748;13.194;2024-01-15T09:47:34;0.90;;;0.80;;
11771;SDS011;12556;55.748;13.194;2024-01-15T09:50:01;0.80;;;0.80;;
11771;SDS011;12556;55.748;13.194;2024-01-15T09:52:29;0.83;;;0.73;;
11771;SDS011;12556;55.748;13.194;2024-01-15T09:54:57;0.67;;;0.67;;
11771;SDS011;12556;55.748;13.194;2024-01-15T09:57:26;0.70;;;0.70;;
11771;SDS011;12556;55.748;13.194;2024-01-15T09:59:53;0.60;;;0.60;;
11771;SDS011;12556;55.748;13.194;2024-01-15T10:02:23;0.60;;;0.60;;
11771;SDS011;12556;55.748;13.194;2024-01-15T10:04:50;0.60;;;0.60;;
11771;SDS011;12556;55.748;13.194;2024-01-15T10:07:17;1.70;;;0.60;;
11771;SDS011;12556;55.748;13.194;2024-01-15T10:09:45;0.63;;;0.63;;
11771;SDS011;12556;55.748;13.194;2024-01-15T10:12:12;0.60;;;0.60;;
11771;SDS011;12556;55.748;13.194;2024-01-15T10:14:40;1.27;;;0.60;;
11771;SDS011;12556;55.748;13.194;2024-01-15T10:17:11;0.60;;;0.60;;
11771;SDS011;12556;55.748;13.194;2024-01-15T10:19:40;0.57;;;0.57;;
11771;SDS011;12556;55.748;13.194;2024-01-15T10:22:07;0.60;;;0.60;;
11771;SDS011;12556;55.748;13.194;2024-01-15T10:24:35;0.50;;;0.50;;
11771;SDS011;12556;55.748;13.194;2024-01-15T10:27:08;0.90;;;0.57;;
11771;SDS011;12556;55.748;13.194;2024-01-15T10:29:36;0.60;;;0.60;;
11771;SDS011;12556;55.748;13.194;2024-01-15T10:32:05;0.70;;;0.70;;
11771;SDS011;12556;55.748;13.194;2024-01-15T10:34:33;0.60;;;0.60;;
11771;SDS011;12556;55.748;13.194;2024-01-15T10:37:03;0.60;;;0.60;;
11771;SDS011;12556;55.748;13.194;2024-01-15T10:39:30;0.80;;;0.80;;
11771;SDS011;12556;55.748;13.194;2024-01-15T10:41:58;0.83;;;0.70;;
11771;SDS011;12556;55.748;13.194;2024-01-15T10:44:26;0.70;;;0.70;;
11771;SDS011;12556;55.748;13.194;2024-01-15T10:46:53;0.60;;;0.60;;
11771;SDS011;12556;55.748;13.194;2024-01-15T10:49:22;0.80;;;0.77;;
11771;SDS011;12556;55.748;13.194;2024-01-15T10:51:51;0.87;;;0.70;;
11771;SDS011;12556;55.748;13.194;2024-01-15T10:54:19;1.50;;;0.70;;
11771;SDS011;12556;55.748;13.194;2024-01-15T10:56:46;0.97;;;0.60;;
11771;SDS011;12556;55.748;13.194;2024-01-15T10:59:13;3.57;;;2.80;;
11771;SDS011;12556;55.748;13.194;2024-01-15T11:01:41;6.87;;;4.13;;
11771;SDS011;12556;55.748;13.194;2024-01-15T11:04:11;2.33;;;1.40;;
11771;SDS011;12556;55.748;13.194;2024-01-15T11:06:42;1.43;;;0.80;;
11771;SDS011;12556;55.748;13.194;2024-01-15T11:09:10;0.77;;;0.60;;
11771;SDS011;12556;55.748;13.194;2024-01-15T11:11:44;1.00;;;0.70;;
11771;SDS011;12556;55.748;13.194;2024-01-15T11:14:12;0.70;;;0.70;;
11771;SDS011;12556;55.748;13.194;2024-01-15T11:17:02;0.60;;;0.60;;
11771;SDS011;12556;55.748;13.194;2024-01-15T11:19:42;0.67;;;0.67;;
11771;SDS011;12556;55.748;13.194;2024-01-15T11:22:10;0.53;;;0.53;;
11771;SDS011;12556;55.748;13.194;2024-01-15T11:25:01;0.90;;;0.90;;
11771;SDS011;12556;55.748;13.194;2024-01-15T11:27:39;0.63;;;0.63;;
11771;SDS011;12556;55.748;13.194;2024-01-15T11:30:08;0.70;;;0.70;;
11771;SDS011;12556;55.748;13.194;2024-01-15T11:32:37;0.97;;;0.63;;
11771;SDS011;12556;55.748;13.194;2024-01-15T11:35:06;3.40;;;0.83;;
11771;SDS011;12556;55.748;13.194;2024-01-15T11:40:38;1.07;;;0.70;;
11771;SDS011;12556;55.748;13.194;2024-01-15T11:43:09;0.50;;;0.50;;
11771;SDS011;12556;55.748;13.194;2024-01-15T11:45:38;2.80;;;0.90;;
11771;SDS011;12556;55.748;13.194;2024-01-15T11:48:11;0.70;;;0.70;;
11771;SDS011;12556;55.748;13.194;2024-01-15T11:50:41;0.60;;;0.60;;
11771;SDS011;12556;55.748;13.194;2024-01-15T11:53:13;0.90;;;0.80;;
11771;SDS011;12556;55.748;13.194;2024-01-15T11:55:43;1.67;;;0.70;;
11771;SDS011;12556;55.748;13.194;2024-01-15T11:58:11;0.63;;;0.63;;
11771;SDS011;12556;55.748;13.194;2024-01-15T12:00:42;0.60;;;0.60;;
11771;SDS011;12556;55.748;13.194;2024-01-15T12:03:12;0.67;;;0.67;;
11771;SDS011;12556;55.748;13.194;2024-01-15T12:05:39;0.70;;;0.70;;
11771;SDS011;12556;55.748;13.194;2024-01-15T12:08:07;0.80;;;0.80;;
11771;SDS011;12556;55.748;13.194;2024-01-15T12:10:36;0.70;;;0.70;;
11771;SDS011;12556;55.748;13.194;2024-01-15T12:13:04;1.00;;;0.93;;
11771;SDS011;12556;55.748;13.194;2024-01-15T12:15:33;1.67;;;0.70;;
11771;SDS011;12556;55.748;13.194;2024-01-15T12:18:00;0.97;;;0.97;;
11771;SDS011;12556;55.748;13.194;2024-01-15T12:20:30;0.70;;;0.70;;
11771;SDS011;12556;55.748;13.194;2024-01-15T12:22:59;1.00;;;0.80;;
11771;SDS011;12556;55.748;13.194;2024-01-15T12:25:25;2.10;;;1.27;;
11771;SDS011;12556;55.748;13.194;2024-01-15T12:27:53;1.33;;;1.23;;
11771;SDS011;12556;55.748;13.194;2024-01-15T12:30:20;1.47;;;1.30;;
11771;SDS011;12556;55.748;13.194;2024-01-15T12:32:47;1.10;;;1.10;;
11771;SDS011;12556;55.748;13.194;2024-01-15T12:35:14;1.70;;;1.60;;
11771;SDS011;12556;55.748;13.194;2024-01-15T12:37:43;0.80;;;0.80;;
11771;SDS011;12556;55.748;13.194;2024-01-15T12:40:11;1.03;;;0.70;;
11771;SDS011;12556;55.748;13.194;2024-01-15T12:42:39;0.70;;;0.70;;
11771;SDS011;12556;55.748;13.194;2024-01-15T12:45:06;1.60;;;0.80;;
11771;SDS011;12556;55.748;13.194;2024-01-15T12:47:35;0.60;;;0.60;;
11771;SDS011;12556;55.748;13.194;2024-01-15T12:50:04;0.60;;;0.60;;
11771;SDS011;12556;55.748;13.194;2024-01-15T12:52:32;0.80;;;0.80;;
11771;SDS011;12556;55.748;13.194;2024-01-15T12:55:01;0.80;;;0.80;;
11771;SDS011;12556;55.748;13.194;2024-01-15T12:57:28;0.73;;;0.70;;
11771;SDS011;12556;55.748;13.194;2024-01-15T12:59:55;1.20;;;1.10;;
11771;SDS011;12556;55.748;13.194;2024-01-15T13:02:22;0.77;;;0.77;;
11771;SDS011;12556;55.748;13.194;2024-01-15T13:04:49;1.03;;;0.70;;
11771;SDS011;12556;55.748;13.194;2024-01-15T13:07:16;1.20;;;0.73;;
11771;SDS011;12556;55.748;13.194;2024-01-15T13:09:43;1.60;;;1.13;;
11771;SDS011;12556;55.748;13.194;2024-01-15T13:12:11;0.77;;;0.77;;
11771;SDS011;12556;55.748;13.194;2024-01-15T13:14:38;1.00;;;0.83;;
11771;SDS011;12556;55.748;13.194;2024-01-15T13:17:06;0.80;;;0.80;;
11771;SDS011;12556;55.748;13.194;2024-01-15T13:19:33;4.00;;;1.03;;
11771;SDS011;12556;55.748;13.194;2024-01-15T13:22:00;0.87;;;0.80;;
11771;SDS011;12556;55.748;13.194;2024-01-15T13:24:28;0.77;;;0.77;;
11771;SDS011;12556;55.748;13.194;2024-01-15T13:26:55;1.00;;;1.00;;
11771;SDS011;12556;55.748;13.194;2024-01-15T13:29:23;1.10;;;0.90;;
11771;SDS011;12556;55.748;13.194;2024-01-15T13:31:50;0.80;;;0.80;;
11771;SDS011;12556;55.748;13.194;2024-01-15T13:34:17;1.20;;;0.97;;
11771;SDS011;12556;55.748;13.194;2024-01-15T13:36:44;0.87;;;0.87;;
11771;SDS011;12556;55.748;13.194;2024-01-15T13:39:11;0.87;;;0.80;;
11771;SDS011;12556;55.748;13.194;2024-01-15T13:41:38;0.90;;;0.90;;
11771;SDS011;12556;55.748;13.194;2024-01-15T13:44:04;0.83;;;0.83;;
11771;SDS011;12556;55.748;13.194;2024-01-15T13:46:33;1.03;;;0.80;;
11771;SDS011;12556;55.748;13.194;2024-01-15T13:49:00;0.80;;;0.80;;
11771;SDS011;12556;55.748;13.194;2024-01-15T13:51:29;1.03;;;0.80;;
11771;SDS011;12556;55.748;13.194;2024-01-15T13:53:56;0.80;;;0.80;;
11771;SDS011;12556;55.748;13.194;2024-01-15T13:56:23;0.97;;;0.97;;
11771;SDS011;12556;55.748;13.194;2024-01-15T13:58:50;1.53;;;1.43;;
11771;SDS011;12556;55.748;13.194;2024-01-15T14:01:18;1.43;;;0.90;;
11771;SDS011;12556;55.748;13.194;2024-01-15T14:03:46;2.43;;;0.90;;
11771;SDS011;12556;55.748;13.194;2024-01-15T14:06:12;2.30;;;0.87;;
11771;SDS011;12556;55.748;13.194;2024-01-15T14:08:40;0.60;;;0.60;;
11771;SDS011;12556;55.748;13.194;2024-01-15T14:11:06;0.80;;;0.80;;
11771;SDS011;12556;55.748;13.194;2024-01-15T14:13:35;0.80;;;0.80;;
11771;SDS011;12556;55.748;13.194;2024-01-15T14:16:02;0.63;;;0.63;;
11771;SDS011;12556;55.748;13.194;2024-01-15T14:18:30;0.80;;;0.80;;
11771;SDS011;12556;55.748;13.194;2024-01-15T14:20:58;0.80;;;0.80;;
11771;SDS011;12556;55.748;13.194;2024-01-15T14:23:25;0.87;;;0.80;;
11771;SDS011;12556;55.748;13.194;2024-01-15T14:25:52;0.80;;;0.70;;
11771;SDS011;12556;55.748;13.194;2024-01-15T14:28:19;1.30;;;0.80;;
11771;SDS011;12556;55.748;13.194;2024-01-15T14:30:46;0.70;;;0.63;;
11771;SDS011;12556;55.748;13.194;2024-01-15T14:33:12;0.83;;;0.83;;
11771;SDS011;12556;55.748;13.194;2024-01-15T14:35:39;0.87;;;0.87;;
11771;SDS011;12556;55.748;13.194;2024-01-15T14:38:07;0.70;;;0.70;;